createdAt,value
2023-04-18T00:01:32.353Z,8.13
2023-04-18T00:03:59.143Z,10.37
2023-04-18T00:06:25.984Z,8.43
2023-04-18T00:08:52.679Z,8.20
2023-04-18T00:11:19.330Z,9.17
2023-04-18T00:13:47.313Z,7.93
2023-04-18T00:16:14.527Z,8.93
2023-04-18T00:18:41.253Z,7.60
2023-04-18T00:21:08.618Z,8.20
2023-04-18T00:23:36.073Z,8.40
2023-04-18T00:26:03.140Z,9.17
2023-04-18T00:28:29.818Z,8.10
2023-04-18T00:30:56.571Z,9.70
2023-04-18T00:33:23.330Z,8.57
2023-04-18T00:35:49.931Z,10.50
2023-04-18T00:38:16.643Z,10.03
2023-04-18T00:40:43.463Z,8.90
2023-04-18T00:43:12.543Z,7.93
2023-04-18T00:45:39.132Z,7.77
2023-04-18T00:48:06.134Z,9.43
2023-04-18T00:50:33.045Z,8.90
2023-04-18T00:52:59.774Z,9.73
2023-04-18T00:55:26.488Z,10.20
2023-04-18T00:57:53.595Z,9.43
2023-04-18T01:00:20.378Z,7.23
2023-04-18T01:02:49.638Z,7.47
2023-04-18T01:05:17.989Z,8.53
2023-04-18T01:07:45.400Z,8.43
2023-04-18T01:10:12.148Z,8.53
2023-04-18T01:12:39.246Z,8.07
2023-04-18T01:15:06.571Z,8.47
2023-04-18T01:17:36.494Z,7.97
2023-04-18T01:20:06.184Z,7.67
2023-04-18T01:22:33.563Z,8.70
2023-04-18T01:25:00.491Z,8.20
2023-04-18T01:27:27.203Z,7.97
2023-04-18T01:29:53.840Z,7.33
2023-04-18T01:32:21.267Z,7.70
2023-04-18T01:34:47.929Z,9.47
2023-04-18T01:37:14.610Z,10.77
2023-04-18T01:39:41.275Z,7.90
2023-04-18T01:42:07.960Z,13.17
2023-04-18T01:44:34.549Z,9.37
2023-04-18T01:47:01.316Z,9.40
2023-04-18T01:49:28.039Z,9.33
2023-04-18T01:51:54.658Z,8.63
2023-04-18T01:54:21.265Z,8.20
2023-04-18T01:56:47.908Z,7.57
2023-04-18T01:59:14.519Z,7.87
2023-04-18T02:01:41.137Z,10.17
2023-04-18T02:04:08.010Z,8.63
2023-04-18T02:06:34.644Z,7.67
2023-04-18T02:09:01.362Z,7.60
2023-04-18T02:11:28.055Z,7.53
2023-04-18T02:13:54.768Z,7.23
2023-04-18T02:16:21.535Z,10.77
2023-04-18T02:18:49.685Z,6.80
2023-04-18T02:21:16.327Z,9.07
2023-04-18T02:23:42.933Z,9.23
2023-04-18T02:26:09.540Z,8.27
2023-04-18T02:28:38.916Z,7.97
2023-04-18T02:31:06.176Z,7.77
2023-04-18T02:33:32.871Z,10.87
2023-04-18T02:35:59.496Z,8.03
2023-04-18T02:38:26.137Z,8.47
2023-04-18T02:40:52.756Z,8.57
2023-04-18T02:43:19.329Z,9.07
2023-04-18T02:45:46.066Z,7.17
2023-04-18T02:48:12.735Z,8.43
2023-04-18T02:50:39.435Z,7.70
2023-04-18T02:53:06.468Z,8.33
2023-04-18T02:55:33.126Z,8.90
2023-04-18T02:57:59.726Z,7.60
2023-04-18T03:00:26.740Z,8.10
2023-04-18T03:02:53.577Z,7.73
2023-04-18T03:05:21.033Z,7.20
2023-04-18T03:07:47.820Z,8.93
2023-04-18T03:10:14.426Z,9.87
2023-04-18T03:12:41.028Z,8.03
2023-04-18T03:15:08.094Z,8.37
2023-04-18T03:17:35.785Z,7.27
2023-04-18T03:20:02.407Z,8.37
2023-04-18T03:22:29.032Z,9.70
2023-04-18T03:24:55.672Z,7.83
2023-04-18T03:27:22.292Z,8.40
2023-04-18T03:29:48.892Z,8.60
2023-04-18T03:32:15.650Z,8.47
2023-04-18T03:34:42.266Z,8.20
2023-04-18T03:37:08.891Z,8.63
2023-04-18T03:39:35.664Z,10.73
2023-04-18T03:42:02.457Z,8.20
2023-04-18T03:44:29.062Z,9.20
2023-04-18T03:46:56.076Z,7.53
2023-04-18T03:49:22.753Z,9.63
2023-04-18T03:51:49.389Z,7.47
2023-04-18T03:54:16.992Z,7.10
2023-04-18T03:56:44.216Z,7.50
2023-04-18T03:59:11.657Z,8.67
2023-04-18T04:01:38.460Z,12.17
2023-04-18T04:04:06.117Z,8.13
2023-04-18T04:06:32.851Z,9.70
2023-04-18T04:08:59.499Z,9.63
2023-04-18T04:11:26.719Z,8.87
2023-04-18T04:13:53.356Z,9.13
2023-04-18T04:16:20.013Z,10.77
2023-04-18T04:18:46.729Z,9.47
2023-04-18T04:21:13.354Z,10.10
2023-04-18T04:23:42.609Z,9.10
2023-04-18T04:26:09.462Z,9.40
2023-04-18T04:28:36.097Z,9.97
2023-04-18T04:31:06.261Z,7.97
2023-04-18T04:33:33.284Z,8.00
2023-04-18T04:36:01.231Z,10.70
2023-04-18T04:38:31.283Z,7.60
2023-04-18T04:40:58.393Z,11.13
2023-04-18T04:43:26.039Z,7.77
2023-04-18T04:45:53.067Z,10.63
2023-04-18T04:48:21.852Z,10.37
2023-04-18T04:50:53.707Z,9.03
2023-04-18T04:53:20.346Z,12.30
2023-04-18T04:55:47.390Z,10.20
2023-04-18T04:58:14.014Z,9.00
2023-04-18T05:00:40.841Z,9.03
2023-04-18T05:03:08.223Z,10.23
2023-04-18T05:05:35.050Z,9.70
2023-04-18T05:08:02.060Z,9.97
2023-04-18T05:10:28.883Z,11.80
2023-04-18T05:12:55.565Z,10.93
2023-04-18T05:15:24.715Z,12.43
2023-04-18T05:17:51.401Z,9.27
2023-04-18T05:20:18.042Z,8.83
2023-04-18T05:22:44.662Z,10.80
2023-04-18T05:25:12.251Z,11.03
2023-04-18T05:27:39.079Z,10.80
2023-04-18T05:30:06.428Z,10.90
2023-04-18T05:32:33.095Z,10.07
2023-04-18T05:34:59.764Z,10.03
2023-04-18T05:37:26.418Z,9.30
2023-04-18T05:39:53.069Z,11.73
2023-04-18T05:42:19.638Z,10.83
2023-04-18T05:44:46.459Z,10.77
2023-04-18T05:47:13.085Z,10.93
2023-04-18T05:49:39.732Z,10.10
2023-04-18T05:52:06.379Z,10.93
2023-04-18T05:54:32.994Z,13.60
2023-04-18T05:57:00.903Z,9.83
2023-04-18T05:59:29.092Z,13.00
2023-04-18T06:01:55.831Z,11.10
2023-04-18T06:04:22.596Z,12.30
2023-04-18T06:06:49.298Z,13.37
2023-04-18T06:09:15.874Z,13.43
2023-04-18T06:11:42.490Z,13.47
2023-04-18T06:14:09.095Z,13.23
2023-04-18T06:16:37.435Z,11.67
2023-04-18T06:19:05.197Z,11.77
2023-04-18T06:21:31.993Z,10.17
2023-04-18T06:23:58.892Z,10.57
2023-04-18T06:26:25.562Z,9.70
2023-04-18T06:28:52.403Z,13.03
2023-04-18T06:31:19.240Z,11.80
2023-04-18T06:33:45.954Z,11.33
2023-04-18T06:36:12.616Z,20.90
2023-04-18T06:38:39.264Z,10.27
2023-04-18T06:41:05.886Z,16.23
2023-04-18T06:43:32.525Z,11.97
2023-04-18T06:45:59.576Z,14.97
2023-04-18T06:48:26.231Z,16.10
2023-04-18T06:50:52.885Z,15.53
2023-04-18T06:53:19.677Z,15.47
2023-04-18T06:55:46.307Z,15.00
2023-04-18T06:58:16.028Z,13.87
2023-04-18T07:00:43.164Z,13.40
2023-04-18T07:03:13.170Z,14.33
2023-04-18T07:05:40.644Z,13.60
2023-04-18T07:08:07.885Z,15.10
2023-04-18T07:10:34.565Z,13.90
2023-04-18T07:13:01.244Z,14.17
2023-04-18T07:15:27.930Z,12.23
2023-04-18T07:17:54.588Z,13.50
2023-04-18T07:20:21.346Z,12.63
2023-04-18T07:22:49.075Z,14.30
2023-04-18T07:25:15.804Z,12.27
2023-04-18T07:27:42.524Z,11.47
2023-04-18T07:30:09.798Z,14.00
2023-04-18T07:32:36.418Z,11.97
2023-04-18T07:35:04.095Z,13.73
2023-04-18T07:37:31.283Z,13.60
2023-04-18T07:39:58.609Z,12.20
2023-04-18T07:42:25.230Z,11.87
2023-04-18T07:44:57.769Z,10.07
2023-04-18T07:47:27.472Z,13.47
2023-04-18T07:49:55.319Z,11.30
2023-04-18T07:52:22.038Z,13.47
2023-04-18T07:54:48.624Z,10.57
2023-04-18T07:57:15.391Z,13.40
2023-04-18T07:59:42.079Z,11.47
2023-04-18T08:02:08.835Z,10.30
2023-04-18T08:04:35.791Z,11.53
2023-04-18T08:07:02.554Z,9.33
2023-04-18T08:09:29.183Z,10.37
2023-04-18T08:11:56.869Z,10.10
2023-04-18T08:14:23.579Z,9.67
2023-04-18T08:16:50.271Z,11.70
2023-04-18T08:19:16.933Z,10.40
2023-04-18T08:21:43.692Z,13.30
2023-04-18T08:24:10.457Z,11.40
2023-04-18T08:26:37.057Z,10.07
2023-04-18T08:29:03.645Z,10.77
2023-04-18T08:31:31.609Z,11.37
2023-04-18T08:33:58.325Z,10.10
2023-04-18T08:36:25.008Z,10.27
2023-04-18T08:38:51.647Z,9.33
2023-04-18T08:41:21.797Z,8.77
2023-04-18T08:43:49.135Z,9.87
2023-04-18T08:46:15.795Z,10.63
2023-04-18T08:48:42.507Z,9.40
2023-04-18T08:51:09.230Z,10.10
2023-04-18T08:53:36.045Z,10.23
2023-04-18T08:56:03.107Z,8.07
2023-04-18T08:58:32.165Z,7.83
2023-04-18T09:00:58.903Z,9.00
2023-04-18T09:03:55.096Z,10.33
2023-04-18T09:06:21.954Z,7.90
2023-04-18T09:09:01.459Z,8.87
2023-04-18T09:11:31.632Z,8.00
2023-04-18T09:13:59.047Z,8.30
2023-04-18T09:16:27.516Z,8.43
2023-04-18T09:19:10.941Z,7.60
2023-04-18T09:21:42.765Z,10.23
2023-04-18T09:24:26.215Z,8.10
2023-04-18T09:26:55.715Z,7.90
2023-04-18T09:29:41.343Z,7.97
2023-04-18T09:32:08.005Z,9.37
2023-04-18T09:34:38.245Z,9.50
2023-04-18T09:37:10.340Z,7.53
2023-04-18T09:39:39.371Z,8.47
2023-04-18T09:42:06.508Z,8.13
2023-04-18T09:44:33.144Z,7.93
2023-04-18T09:47:00.601Z,7.73
2023-04-18T09:49:27.609Z,7.57
2023-04-18T09:51:55.523Z,7.40
2023-04-18T09:54:30.166Z,8.37
2023-04-18T09:56:58.754Z,7.83
2023-04-18T09:59:48.965Z,7.37
2023-04-18T10:02:20.847Z,6.90
2023-04-18T10:04:49.197Z,7.03
2023-04-18T10:07:17.287Z,6.47
2023-04-18T10:09:46.802Z,7.17
2023-04-18T10:12:14.206Z,6.30
2023-04-18T10:14:43.321Z,6.67
2023-04-18T10:17:11.682Z,5.43
2023-04-18T10:19:41.886Z,6.60
2023-04-18T10:22:08.601Z,6.70
2023-04-18T10:24:50.268Z,6.00
2023-04-18T10:27:17.742Z,7.93
2023-04-18T10:29:51.155Z,6.20
2023-04-18T10:32:23.905Z,5.80
2023-04-18T10:34:53.313Z,5.10
2023-04-18T10:37:20.169Z,4.80
2023-04-18T10:40:02.777Z,5.13
2023-04-18T10:42:47.512Z,5.27
2023-04-18T10:45:24.549Z,5.67
2023-04-18T10:48:11.420Z,5.17
2023-04-18T10:51:17.465Z,4.97
2023-04-18T10:53:52.621Z,4.90
2023-04-18T10:56:19.378Z,5.40
2023-04-18T10:58:51.533Z,4.73
2023-04-18T11:01:32.197Z,5.17
2023-04-18T11:04:00.422Z,5.57
2023-04-18T11:06:27.626Z,5.30
2023-04-18T11:09:13.719Z,5.13
2023-04-18T11:11:41.661Z,5.00
2023-04-18T11:14:08.451Z,4.80
2023-04-18T11:16:35.574Z,5.27
2023-04-18T11:19:19.729Z,4.90
2023-04-18T11:21:46.418Z,4.83
2023-04-18T11:24:21.879Z,4.90
2023-04-18T11:26:48.547Z,4.60
2023-04-18T11:29:17.958Z,4.67
2023-04-18T11:31:51.416Z,5.43
2023-04-18T11:34:18.526Z,5.63
2023-04-18T11:36:52.293Z,7.77
2023-04-18T11:39:19.351Z,5.20
2023-04-18T11:41:50.415Z,5.13
2023-04-18T11:44:18.536Z,9.47
2023-04-18T11:46:47.702Z,6.03
2023-04-18T11:49:31.257Z,4.97
2023-04-18T11:52:01.033Z,6.47
2023-04-18T11:54:44.787Z,4.97
2023-04-18T11:57:24.806Z,5.40
2023-04-18T11:59:57.572Z,5.30
2023-04-18T12:02:40.862Z,5.50
2023-04-18T12:05:08.190Z,5.60
2023-04-18T12:07:36.960Z,5.63
2023-04-18T12:10:05.956Z,6.10
2023-04-18T12:12:32.998Z,6.00
2023-04-18T12:15:08.309Z,7.60
2023-04-18T12:17:37.480Z,6.13
2023-04-18T12:20:06.464Z,6.27
2023-04-18T12:22:41.975Z,7.27
2023-04-18T12:25:10.121Z,6.50
2023-04-18T12:27:59.119Z,6.47
2023-04-18T12:30:36.885Z,6.90
2023-04-18T12:33:04.750Z,6.60
2023-04-18T12:35:32.422Z,6.80
2023-04-18T12:38:00.863Z,8.80
2023-04-18T12:40:28.760Z,7.87
2023-04-18T12:42:56.010Z,7.67
2023-04-18T12:45:23.693Z,7.53
2023-04-18T12:47:52.029Z,7.50
2023-04-18T12:50:21.346Z,7.67
2023-04-18T12:52:48.822Z,7.43
2023-04-18T12:55:15.684Z,6.57
2023-04-18T12:57:43.188Z,9.70
2023-04-18T13:00:11.437Z,7.00
2023-04-18T13:02:42.992Z,8.47
2023-04-18T13:05:12.232Z,7.00
2023-04-18T13:07:40.458Z,6.73
2023-04-18T13:10:09.003Z,6.70
2023-04-18T13:12:35.873Z,9.30
2023-04-18T13:15:03.502Z,9.27
2023-04-18T13:17:30.678Z,7.93
2023-04-18T13:19:57.447Z,9.90
2023-04-18T13:22:24.090Z,7.33
2023-04-18T13:24:50.789Z,8.40
2023-04-18T13:27:17.492Z,9.67
2023-04-18T13:29:45.586Z,7.03
2023-04-18T13:32:13.079Z,6.47
2023-04-18T13:34:45.507Z,7.00
2023-04-18T13:37:12.856Z,6.90
2023-04-18T13:39:39.570Z,6.67
2023-04-18T13:42:07.567Z,6.83
2023-04-18T13:44:35.888Z,9.03
2023-04-18T13:47:06.990Z,8.30
2023-04-18T13:49:34.370Z,6.53
2023-04-18T13:52:01.347Z,6.33
2023-04-18T13:54:30.444Z,6.50
2023-04-18T13:56:58.940Z,7.07
2023-04-18T13:59:26.439Z,7.20
2023-04-18T14:01:54.454Z,6.40
2023-04-18T14:04:22.314Z,7.97
2023-04-18T14:06:49.844Z,6.43
2023-04-18T14:09:17.025Z,6.60
2023-04-18T14:11:44.601Z,6.37
2023-04-18T14:14:11.279Z,6.50
2023-04-18T14:16:38.414Z,8.73
2023-04-18T14:19:05.213Z,9.10
2023-04-18T14:21:31.986Z,7.23
2023-04-18T14:23:58.670Z,7.37
2023-04-18T14:26:25.463Z,8.70
2023-04-18T14:28:52.183Z,8.13
2023-04-18T14:31:18.892Z,7.13
2023-04-18T14:33:46.194Z,7.13
2023-04-18T14:36:14.891Z,7.03
2023-04-18T14:38:42.035Z,7.07
2023-04-18T14:41:08.851Z,7.00
2023-04-18T14:43:35.537Z,7.03
2023-04-18T14:46:02.247Z,7.90
2023-04-18T14:48:28.958Z,7.23
2023-04-18T14:50:59.786Z,8.43
2023-04-18T14:53:27.012Z,7.40
2023-04-18T14:55:53.697Z,7.80
2023-04-18T14:58:20.632Z,7.73
2023-04-18T15:00:47.600Z,9.20
2023-04-18T15:03:14.349Z,7.30
2023-04-18T15:05:44.916Z,8.63
2023-04-18T15:08:11.806Z,8.33
2023-04-18T15:10:40.261Z,7.20
2023-04-18T15:13:06.926Z,8.23
2023-04-18T15:15:37.677Z,8.90
2023-04-18T15:18:04.725Z,7.40
2023-04-18T15:20:31.490Z,7.10
2023-04-18T15:22:58.114Z,6.97
2023-04-18T15:25:26.066Z,6.97
2023-04-18T15:27:52.923Z,7.13
2023-04-18T15:30:19.668Z,8.93
2023-04-18T15:32:47.561Z,7.13
2023-04-18T15:35:17.405Z,7.90
2023-04-18T15:37:44.060Z,7.53
2023-04-18T15:40:15.937Z,7.57
2023-04-18T15:42:43.993Z,7.07
2023-04-18T15:45:11.550Z,6.80
2023-04-18T15:47:38.801Z,7.53
2023-04-18T15:50:06.876Z,8.33
2023-04-18T15:52:35.672Z,7.93
2023-04-18T15:55:02.711Z,8.33
2023-04-18T15:57:29.669Z,8.93
2023-04-18T15:59:57.138Z,10.53
2023-04-18T16:02:23.904Z,7.80
2023-04-18T16:04:50.967Z,6.83
2023-04-18T16:07:17.825Z,8.63
2023-04-18T16:09:44.436Z,8.17
2023-04-18T16:12:11.176Z,9.33
2023-04-18T16:14:37.777Z,8.20
2023-04-18T16:17:04.695Z,7.60
2023-04-18T16:19:32.521Z,7.70
2023-04-18T16:21:59.988Z,9.07
2023-04-18T16:24:26.706Z,7.90
2023-04-18T16:26:55.475Z,7.60
2023-04-18T16:29:22.308Z,8.50
2023-04-18T16:31:49.124Z,7.70
2023-04-18T16:34:17.920Z,8.60
2023-04-18T16:36:44.623Z,8.33
2023-04-18T16:39:11.758Z,8.23
2023-04-18T16:41:38.344Z,7.37
2023-04-18T16:44:05.253Z,9.20
2023-04-18T16:46:32.331Z,8.27
2023-04-18T16:48:59.376Z,8.60
2023-04-18T16:51:26.858Z,11.60
2023-04-18T16:53:53.549Z,8.67
2023-04-18T16:56:20.235Z,8.37
2023-04-18T16:58:46.917Z,9.50
2023-04-18T17:01:13.725Z,8.50
2023-04-18T17:03:44.221Z,9.13
2023-04-18T17:06:10.928Z,14.83
2023-04-18T17:08:37.688Z,7.77
2023-04-18T17:11:04.507Z,7.20
2023-04-18T17:13:31.701Z,8.93
2023-04-18T17:16:00.811Z,10.87
2023-04-18T17:18:28.829Z,9.10
2023-04-18T17:20:55.800Z,9.40
2023-04-18T17:23:22.864Z,9.27
2023-04-18T17:25:49.618Z,8.10
2023-04-18T17:28:16.312Z,8.03
2023-04-18T17:30:42.969Z,10.10
2023-04-18T17:33:10.316Z,8.67
2023-04-18T17:35:37.351Z,12.37
2023-04-18T17:38:03.980Z,10.83
2023-04-18T17:40:30.608Z,8.37
2023-04-18T17:42:57.293Z,9.40
2023-04-18T17:45:24.106Z,9.73
2023-04-18T17:47:50.907Z,9.37
2023-04-18T17:50:17.964Z,9.53
2023-04-18T17:52:46.242Z,12.27
2023-04-18T17:55:13.141Z,10.60
2023-04-18T17:57:39.848Z,9.83
2023-04-18T18:00:10.356Z,10.00
2023-04-18T18:02:38.929Z,9.07
2023-04-18T18:05:05.937Z,10.00
2023-04-18T18:07:34.799Z,10.83
2023-04-18T18:10:02.397Z,13.03
2023-04-18T18:12:29.240Z,10.63
2023-04-18T18:14:57.329Z,12.73
2023-04-18T18:17:24.504Z,12.43
2023-04-18T18:19:51.569Z,11.67
2023-04-18T18:22:18.235Z,13.67
2023-04-18T18:24:45.465Z,13.30
2023-04-18T18:27:12.138Z,11.30
2023-04-18T18:29:38.763Z,11.33
2023-04-18T18:32:05.823Z,14.67
2023-04-18T18:34:32.469Z,10.27
2023-04-18T18:36:59.078Z,10.83
2023-04-18T18:39:25.760Z,11.80
2023-04-18T18:41:52.435Z,12.63
2023-04-18T18:44:19.103Z,9.93
2023-04-18T18:46:45.851Z,10.70
2023-04-18T18:49:12.708Z,9.50
2023-04-18T18:51:40.849Z,11.93
2023-04-18T18:54:07.565Z,12.13
2023-04-18T18:56:34.165Z,12.00
2023-04-18T18:59:00.773Z,11.90
2023-04-18T19:01:30.132Z,12.80
2023-04-18T19:03:56.930Z,11.87
2023-04-18T19:06:23.692Z,11.20
2023-04-18T19:08:50.389Z,11.77
2023-04-18T19:11:18.745Z,12.33
2023-04-18T19:13:45.563Z,12.07
2023-04-18T19:16:12.635Z,12.57
2023-04-18T19:18:46.819Z,12.37
2023-04-18T19:21:13.830Z,13.30
2023-04-18T19:23:41.810Z,11.93
2023-04-18T19:26:09.349Z,11.37
2023-04-18T19:28:39.133Z,11.07
2023-04-18T19:31:05.900Z,10.67
2023-04-18T19:33:32.623Z,13.00
2023-04-18T19:35:59.313Z,13.10
2023-04-18T19:38:27.732Z,10.97
2023-04-18T19:40:54.384Z,9.80
2023-04-18T19:43:21.017Z,14.37
2023-04-18T19:45:47.923Z,12.33
2023-04-18T19:48:14.685Z,11.00
2023-04-18T19:50:42.228Z,10.53
2023-04-18T19:53:09.248Z,11.93
2023-04-18T19:55:35.951Z,10.93
2023-04-18T19:58:02.657Z,10.93
2023-04-18T20:00:29.426Z,11.00
2023-04-18T20:02:58.347Z,9.03
2023-04-18T20:05:25.371Z,11.63
2023-04-18T20:07:52.056Z,12.37
2023-04-18T20:10:22.342Z,11.70
2023-04-18T20:12:50.205Z,10.93
2023-04-18T20:15:17.019Z,12.03
2023-04-18T20:17:43.728Z,10.40
2023-04-18T20:20:11.172Z,11.53
2023-04-18T20:22:40.172Z,10.53
2023-04-18T20:25:07.132Z,12.27
2023-04-18T20:27:33.744Z,10.57
2023-04-18T20:30:00.425Z,12.80
2023-04-18T20:32:29.248Z,12.50
2023-04-18T20:34:55.935Z,12.07
2023-04-18T20:37:22.690Z,12.07
2023-04-18T20:39:49.409Z,11.67
2023-04-18T20:42:16.088Z,10.83
2023-04-18T20:44:44.104Z,9.67
2023-04-18T20:47:11.441Z,10.90
2023-04-18T20:49:39.458Z,11.70
2023-04-18T20:52:11.870Z,10.87
2023-04-18T20:54:44.509Z,12.47
2023-04-18T20:57:11.192Z,11.90
2023-04-18T20:59:37.766Z,11.37
2023-04-18T21:02:04.606Z,9.77
2023-04-18T21:04:31.535Z,12.47
2023-04-18T21:06:58.253Z,12.30
2023-04-18T21:09:24.911Z,11.40
2023-04-18T21:11:51.571Z,11.73
2023-04-18T21:14:18.200Z,9.93
2023-04-18T21:16:44.814Z,9.97
2023-04-18T21:19:11.525Z,12.03
2023-04-18T21:21:38.176Z,10.97
2023-04-18T21:24:05.634Z,10.90
2023-04-18T21:26:32.260Z,8.83
2023-04-18T21:29:01.140Z,10.20
2023-04-18T21:31:30.340Z,8.97
2023-04-18T21:34:00.044Z,9.73
2023-04-18T21:36:28.685Z,9.40
2023-04-18T21:38:56.866Z,9.03
2023-04-18T21:41:24.618Z,9.37
2023-04-18T21:43:51.609Z,9.70
2023-04-18T21:46:18.656Z,8.80
2023-04-18T21:48:46.983Z,8.60
2023-04-18T21:51:15.451Z,9.03
2023-04-18T21:53:42.716Z,9.17
2023-04-18T21:56:09.472Z,9.67
2023-04-18T21:58:36.253Z,8.23
2023-04-18T22:01:03.258Z,9.37
2023-04-18T22:03:31.447Z,8.77
2023-04-18T22:05:58.794Z,9.47
2023-04-18T22:08:26.190Z,10.50
2023-04-18T22:10:58.097Z,10.47
2023-04-18T22:13:30.067Z,9.03
2023-04-18T22:15:58.121Z,9.07
2023-04-18T22:18:25.186Z,11.30
2023-04-18T22:20:53.595Z,9.53
2023-04-18T22:23:20.458Z,8.77
2023-04-18T22:25:47.167Z,8.80
2023-04-18T22:28:13.881Z,9.13
2023-04-18T22:30:40.818Z,9.30
2023-04-18T22:33:07.473Z,8.87
2023-04-18T22:35:34.126Z,10.77
2023-04-18T22:38:00.870Z,8.87
2023-04-18T22:40:27.504Z,8.97
2023-04-18T22:42:54.353Z,8.63
2023-04-18T22:45:21.084Z,8.57
2023-04-18T22:47:47.832Z,9.27
2023-04-18T22:50:14.835Z,9.53
2023-04-18T22:52:41.595Z,9.43
2023-04-18T22:55:09.134Z,7.63
2023-04-18T22:57:36.001Z,9.67
2023-04-18T23:00:04.723Z,7.77
2023-04-18T23:02:31.451Z,9.33
2023-04-18T23:04:59.664Z,8.27
2023-04-18T23:07:26.523Z,9.67
2023-04-18T23:09:53.156Z,7.57
2023-04-18T23:12:19.930Z,7.63
2023-04-18T23:14:47.400Z,7.47
2023-04-18T23:17:14.010Z,8.43
2023-04-18T23:19:40.820Z,8.27
2023-04-18T23:22:07.470Z,7.83
2023-04-18T23:24:34.108Z,7.63
2023-04-18T23:27:01.397Z,8.10
2023-04-18T23:29:28.240Z,7.27
2023-04-18T23:31:55.235Z,9.37
2023-04-18T23:34:22.585Z,8.77
2023-04-18T23:36:49.347Z,8.00
2023-04-18T23:39:18.492Z,8.87
2023-04-18T23:41:45.576Z,8.80
2023-04-18T23:44:12.303Z,7.73
2023-04-18T23:46:39.021Z,8.07
2023-04-18T23:49:05.709Z,8.10
2023-04-18T23:51:32.299Z,7.37
2023-04-18T23:53:58.903Z,7.97
2023-04-18T23:56:26.241Z,9.30
2023-04-18T23:58:53.849Z,7.40
